Terminal Aerodrome Forecast
Issued by NWS Oklahoma City, OK

Home | Current Version | Previous Version | Text Only | Print | Product List | Glossary On
Versions: 1 2 3 4 5 6 7 8 9 10 11 12 13 14 15 16 17 18 19 20 21 22 23
000
FTUS44 KOUN 120520
TAFOUN
TAF
KOUN 120520Z 1206/1306 35002KT P6SM FEW200
     FM121500 36012KT P6SM SCT200
     FM121700 36014G21KT P6SM SCT200
     FM130000 03011KT P6SM SCT150=

USA.gov is the U.S. government's official web portal to all federal, state and local government web resources and services.